sensor_id;sensor_type;location;lat;lon;timestamp;pressure;altitude;pressure_sealevel;temperature;humidity
70437;BME280;57877;39.750;-104.894;2023-01-28T00:02:13;82781.70;;;4.80;25.39
70437;BME280;57877;39.750;-104.894;2023-01-28T00:04:39;82773.30;;;5.59;25.08
70437;BME280;57877;39.750;-104.894;2023-01-28T00:07:05;82772.63;;;5.39;24.87
70437;BME280;57877;39.750;-104.894;2023-01-28T00:09:31;82775.63;;;5.89;24.67
70437;BME280;57877;39.750;-104.894;2023-01-28T00:11:57;82781.32;;;5.20;24.93
70437;BME280;57877;39.750;-104.894;2023-01-28T00:14:23;82783.90;;;4.85;24.31
70437;BME280;57877;39.750;-104.894;2023-01-28T00:16:49;82785.26;;;5.42;25.62
70437;BME280;57877;39.750;-104.894;2023-01-28T00:19:15;82778.37;;;5.75;23.58
70437;BME280;57877;39.750;-104.894;2023-01-28T00:21:41;82773.93;;;5.54;24.03
70437;BME280;57877;39.750;-104.894;2023-01-28T00:24:07;82777.04;;;5.46;24.80
70437;BME280;57877;39.750;-104.894;2023-01-28T00:26:33;82783.56;;;3.74;24.84
70437;BME280;57877;39.750;-104.894;2023-01-28T00:28:59;82788.93;;;4.45;25.43
70437;BME280;57877;39.750;-104.894;2023-01-28T00:31:26;82790.69;;;3.95;25.60
70437;BME280;57877;39.750;-104.894;2023-01-28T00:33:52;82796.47;;;2.86;26.78
70437;BME280;57877;39.750;-104.894;2023-01-28T00:36:19;82803.41;;;2.92;26.85
70437;BME280;57877;39.750;-104.894;2023-01-28T00:38:48;82812.55;;;3.67;27.02
70437;BME280;57877;39.750;-104.894;2023-01-28T00:41:11;82812.30;;;2.71;27.90
70437;BME280;57877;39.750;-104.894;2023-01-28T00:43:35;82813.32;;;3.31;28.09
70437;BME280;57877;39.750;-104.894;2023-01-28T00:46:01;82821.60;;;4.01;26.55
70437;BME280;57877;39.750;-104.894;2023-01-28T00:48:27;82816.93;;;4.21;27.16
70437;BME280;57877;39.750;-104.894;2023-01-28T00:50:53;82821.98;;;4.66;25.60
70437;BME280;57877;39.750;-104.894;2023-01-28T00:53:19;82822.29;;;4.86;25.15
70437;BME280;57877;39.750;-104.894;2023-01-28T00:55:45;82829.94;;;4.89;25.33
70437;BME280;57877;39.750;-104.894;2023-01-28T00:58:11;82831.21;;;4.69;25.51
70437;BME280;57877;39.750;-104.894;2023-01-28T01:00:37;82827.65;;;4.52;25.28
70437;BME280;57877;39.750;-104.894;2023-01-28T01:03:03;82824.40;;;4.18;25.42
70437;BME280;57877;39.750;-104.894;2023-01-28T01:05:29;82825.82;;;4.61;26.19
70437;BME280;57877;39.750;-104.894;2023-01-28T01:07:55;82821.51;;;4.80;26.08
70437;BME280;57877;39.750;-104.894;2023-01-28T01:10:21;82825.83;;;4.72;25.59
70437;BME280;57877;39.750;-104.894;2023-01-28T01:12:48;82822.47;;;4.78;24.91
70437;BME280;57877;39.750;-104.894;2023-01-28T01:15:13;82823.56;;;4.28;27.19
70437;BME280;57877;39.750;-104.894;2023-01-28T01:17:40;82815.99;;;4.60;25.59
70437;BME280;57877;39.750;-104.894;2023-01-28T01:20:07;82814.71;;;4.76;26.33
70437;BME280;57877;39.750;-104.894;2023-01-28T01:22:33;82812.96;;;4.19;26.83
70437;BME280;57877;39.750;-104.894;2023-01-28T01:24:56;82814.34;;;4.33;27.53
70437;BME280;57877;39.750;-104.894;2023-01-28T01:27:21;82808.40;;;4.06;27.30
70437;BME280;57877;39.750;-104.894;2023-01-28T01:29:47;82805.23;;;3.71;28.77
70437;BME280;57877;39.750;-104.894;2023-01-28T01:32:13;82806.83;;;3.71;27.81
70437;BME280;57877;39.750;-104.894;2023-01-28T01:34:39;82807.17;;;3.83;27.97
70437;BME280;57877;39.750;-104.894;2023-01-28T01:37:05;82817.68;;;4.01;27.57
70437;BME280;57877;39.750;-104.894;2023-01-28T01:39:31;82824.60;;;4.04;26.64
70437;BME280;57877;39.750;-104.894;2023-01-28T01:41:57;82825.70;;;3.92;26.92
70437;BME280;57877;39.750;-104.894;2023-01-28T01:46:50;82832.11;;;3.45;28.67
70437;BME280;57877;39.750;-104.894;2023-01-28T01:49:20;82832.90;;;3.75;28.34
70437;BME280;57877;39.750;-104.894;2023-01-28T01:51:43;82828.39;;;3.18;28.76
70437;BME280;57877;39.750;-104.894;2023-01-28T01:54:08;82828.21;;;3.15;28.71
70437;BME280;57877;39.750;-104.894;2023-01-28T01:56:36;82835.13;;;3.28;27.75
70437;BME280;57877;39.750;-104.894;2023-01-28T01:58:59;82840.78;;;3.12;27.19
70437;BME280;57877;39.750;-104.894;2023-01-28T02:01:26;82831.09;;;3.64;27.01
70437;BME280;57877;39.750;-104.894;2023-01-28T02:03:54;82831.07;;;3.55;27.09
70437;BME280;57877;39.750;-104.894;2023-01-28T02:06:14;82828.19;;;3.12;28.94
70437;BME280;57877;39.750;-104.894;2023-01-28T02:08:41;82842.07;;;3.11;28.40
70437;BME280;57877;39.750;-104.894;2023-01-28T02:11:07;82827.25;;;2.43;27.21
70437;BME280;57877;39.750;-104.894;2023-01-28T02:13:35;82840.67;;;2.64;28.12
70437;BME280;57877;39.750;-104.894;2023-01-28T02:16:00;82842.11;;;2.46;29.33
70437;BME280;57877;39.750;-104.894;2023-01-28T02:18:25;82834.92;;;2.64;29.25
70437;BME280;57877;39.750;-104.894;2023-01-28T02:21:07;82842.96;;;2.99;27.65
70437;BME280;57877;39.750;-104.894;2023-01-28T02:23:25;82842.91;;;2.77;28.47
70437;BME280;57877;39.750;-104.894;2023-01-28T02:28:17;82845.86;;;2.95;27.95
70437;BME280;57877;39.750;-104.894;2023-01-28T02:30:39;82843.86;;;2.81;29.16
70437;BME280;57877;39.750;-104.894;2023-01-28T02:33:04;82840.43;;;3.06;28.07
70437;BME280;57877;39.750;-104.894;2023-01-28T02:35:30;82843.73;;;3.24;28.08
70437;BME280;57877;39.750;-104.894;2023-01-28T02:37:56;82846.43;;;3.56;27.91
70437;BME280;57877;39.750;-104.894;2023-01-28T02:40:21;82845.98;;;3.60;27.27
70437;BME280;57877;39.750;-104.894;2023-01-28T02:42:43;82840.94;;;2.79;29.29
70437;BME280;57877;39.750;-104.894;2023-01-28T02:45:18;82839.12;;;2.71;30.92
70437;BME280;57877;39.750;-104.894;2023-01-28T02:47:34;82836.09;;;2.91;30.70
70437;BME280;57877;39.750;-104.894;2023-01-28T02:50:02;82836.33;;;3.40;30.62
70437;BME280;57877;39.750;-104.894;2023-01-28T02:52:33;82836.58;;;3.01;30.29
70437;BME280;57877;39.750;-104.894;2023-01-28T02:54:56;82831.72;;;3.22;29.61
70437;BME280;57877;39.750;-104.894;2023-01-28T02:57:23;82836.63;;;3.56;29.65
70437;BME280;57877;39.750;-104.894;2023-01-28T02:59:46;82830.32;;;3.75;29.27
70437;BME280;57877;39.750;-104.894;2023-01-28T03:02:13;82827.82;;;3.84;29.06
70437;BME280;57877;39.750;-104.894;2023-01-28T03:04:37;82830.17;;;3.52;28.44
70437;BME280;57877;39.750;-104.894;2023-01-28T03:07:02;82818.71;;;3.92;28.94
70437;BME280;57877;39.750;-104.894;2023-01-28T03:09:24;82825.62;;;3.30;29.55
70437;BME280;57877;39.750;-104.894;2023-01-28T03:11:52;82822.60;;;2.72;29.86
70437;BME280;57877;39.750;-104.894;2023-01-28T03:14:15;82825.97;;;2.43;29.13
70437;BME280;57877;39.750;-104.894;2023-01-28T03:16:41;82824.47;;;3.07;28.91
70437;BME280;57877;39.750;-104.894;2023-01-28T03:19:08;82816.73;;;3.29;28.95
70437;BME280;57877;39.750;-104.894;2023-01-28T03:21:35;82811.62;;;3.10;28.74
70437;BME280;57877;39.750;-104.894;2023-01-28T03:24:02;82817.02;;;3.23;28.85
70437;BME280;57877;39.750;-104.894;2023-01-28T03:26:27;82799.98;;;2.78;28.89
70437;BME280;57877;39.750;-104.894;2023-01-28T03:28:52;82821.35;;;2.71;29.37
70437;BME280;57877;39.750;-104.894;2023-01-28T03:31:18;82822.48;;;3.07;29.36
70437;BME280;57877;39.750;-104.894;2023-01-28T03:33:43;82824.48;;;3.41;29.07
70437;BME280;57877;39.750;-104.894;2023-01-28T03:36:09;82821.78;;;2.90;29.41
70437;BME280;57877;39.750;-104.894;2023-01-28T03:38:34;82824.42;;;2.99;29.93
70437;BME280;57877;39.750;-104.894;2023-01-28T03:41:00;82826.48;;;3.10;29.72
70437;BME280;57877;39.750;-104.894;2023-01-28T03:43:25;82827.09;;;3.02;29.41
70437;BME280;57877;39.750;-104.894;2023-01-28T03:45:50;82830.23;;;3.13;29.38
70437;BME280;57877;39.750;-104.894;2023-01-28T03:48:15;82831.54;;;3.19;29.76
70437;BME280;57877;39.750;-104.894;2023-01-28T03:50:41;82829.03;;;3.65;29.19
70437;BME280;57877;39.750;-104.894;2023-01-28T03:53:06;82831.00;;;3.34;28.98
70437;BME280;57877;39.750;-104.894;2023-01-28T03:55:31;82827.46;;;3.40;28.89
70437;BME280;57877;39.750;-104.894;2023-01-28T03:57:57;82826.60;;;3.63;29.30
70437;BME280;57877;39.750;-104.894;2023-01-28T04:00:22;82822.82;;;3.00;29.83
70437;BME280;57877;39.750;-104.894;2023-01-28T04:02:47;82821.92;;;3.29;29.72
70437;BME280;57877;39.750;-104.894;2023-01-28T04:05:13;82827.06;;;3.30;29.25
70437;BME280;57877;39.750;-104.894;2023-01-28T04:07:38;82828.15;;;3.29;29.02
70437;BME280;57877;39.750;-104.894;2023-01-28T04:10:04;82827.30;;;3.18;29.03
70437;BME280;57877;39.750;-104.894;2023-01-28T04:12:28;82825.54;;;3.57;30.09
70437;BME280;57877;39.750;-104.894;2023-01-28T04:14:53;82819.64;;;3.43;30.41
70437;BME280;57877;39.750;-104.894;2023-01-28T04:17:18;82823.84;;;3.08;31.28
70437;BME280;57877;39.750;-104.894;2023-01-28T04:19:43;82822.42;;;3.02;31.16
70437;BME280;57877;39.750;-104.894;2023-01-28T04:22:10;82822.14;;;2.75;31.03
70437;BME280;57877;39.750;-104.894;2023-01-28T04:24:33;82819.56;;;2.96;31.69
70437;BME280;57877;39.750;-104.894;2023-01-28T04:26:59;82816.64;;;2.94;30.71
70437;BME280;57877;39.750;-104.894;2023-01-28T04:29:25;82809.49;;;2.50;30.57
70437;BME280;57877;39.750;-104.894;2023-01-28T04:31:50;82806.50;;;2.64;30.67
70437;BME280;57877;39.750;-104.894;2023-01-28T04:34:15;82807.93;;;2.59;30.96
70437;BME280;57877;39.750;-104.894;2023-01-28T04:36:40;82806.40;;;2.47;30.92
70437;BME280;57877;39.750;-104.894;2023-01-28T04:39:06;82810.22;;;2.75;30.86
70437;BME280;57877;39.750;-104.894;2023-01-28T04:41:31;82815.86;;;2.76;31.08
70437;BME280;57877;39.750;-104.894;2023-01-28T04:43:56;82818.49;;;2.33;32.58
70437;BME280;57877;39.750;-104.894;2023-01-28T04:46:21;82827.54;;;2.53;33.23
70437;BME280;57877;39.750;-104.894;2023-01-28T04:48:46;82836.78;;;1.89;32.34
70437;BME280;57877;39.750;-104.894;2023-01-28T04:51:11;82830.70;;;1.98;32.80
70437;BME280;57877;39.750;-104.894;2023-01-28T04:53:36;82825.29;;;2.30;32.50
70437;BME280;57877;39.750;-104.894;2023-01-28T04:56:01;82819.78;;;2.07;33.42
70437;BME280;57877;39.750;-104.894;2023-01-28T04:58:26;82823.99;;;2.22;32.32
70437;BME280;57877;39.750;-104.894;2023-01-28T05:00:54;82822.30;;;2.35;32.17
70437;BME280;57877;39.750;-104.894;2023-01-28T05:03:16;82823.51;;;2.54;31.79
70437;BME280;57877;39.750;-104.894;2023-01-28T05:05:41;82826.28;;;1.93;32.06
70437;BME280;57877;39.750;-104.894;2023-01-28T05:08:07;82825.42;;;1.90;32.27
70437;BME280;57877;39.750;-104.894;2023-01-28T05:10:31;82817.25;;;2.10;32.22
70437;BME280;57877;39.750;-104.894;2023-01-28T05:12:56;82811.00;;;2.38;32.33
70437;BME280;57877;39.750;-104.894;2023-01-28T05:15:21;82823.08;;;1.80;33.58
70437;BME280;57877;39.750;-104.894;2023-01-28T05:17:47;82830.97;;;1.88;33.29
70437;BME280;57877;39.750;-104.894;2023-01-28T05:20:13;82819.52;;;1.45;33.18
70437;BME280;57877;39.750;-104.894;2023-01-28T05:22:36;82827.09;;;1.54;33.24
70437;BME280;57877;39.750;-104.894;2023-01-28T05:25:01;82830.15;;;1.93;33.08
70437;BME280;57877;39.750;-104.894;2023-01-28T05:27:26;82827.67;;;2.14;32.40
70437;BME280;57877;39.750;-104.894;2023-01-28T05:29:51;82826.83;;;2.19;32.66
70437;BME280;57877;39.750;-104.894;2023-01-28T05:32:16;82828.19;;;1.66;33.22
70437;BME280;57877;39.750;-104.894;2023-01-28T05:34:41;82814.47;;;1.40;34.60
70437;BME280;57877;39.750;-104.894;2023-01-28T05:37:06;82826.50;;;0.64;35.18
70437;BME280;57877;39.750;-104.894;2023-01-28T05:39:31;82817.34;;;0.72;34.70
70437;BME280;57877;39.750;-104.894;2023-01-28T05:41:56;82808.80;;;1.29;33.83
70437;BME280;57877;39.750;-104.894;2023-01-28T05:44:23;82808.43;;;1.76;33.40
70437;BME280;57877;39.750;-104.894;2023-01-28T05:46:49;82802.37;;;1.28;33.95
70437;BME280;57877;39.750;-104.894;2023-01-28T05:49:14;82803.09;;;1.76;34.16
70437;BME280;57877;39.750;-104.894;2023-01-28T05:51:41;82801.67;;;1.54;34.20
70437;BME280;57877;39.750;-104.894;2023-01-28T05:54:07;82798.89;;;1.93;33.53
70437;BME280;57877;39.750;-104.894;2023-01-28T05:56:33;82795.35;;;1.67;33.34
70437;BME280;57877;39.750;-104.894;2023-01-28T05:58:58;82797.52;;;2.16;32.69
70437;BME280;57877;39.750;-104.894;2023-01-28T06:01:24;82803.44;;;1.89;33.98
70437;BME280;57877;39.750;-104.894;2023-01-28T06:03:51;82796.95;;;1.53;34.04
70437;BME280;57877;39.750;-104.894;2023-01-28T06:06:16;82798.33;;;1.46;34.49
70437;BME280;57877;39.750;-104.894;2023-01-28T06:08:41;82796.82;;;1.58;33.76
70437;BME280;57877;39.750;-104.894;2023-01-28T06:11:08;82794.45;;;0.89;34.51
70437;BME280;57877;39.750;-104.894;2023-01-28T06:13:34;82800.86;;;0.96;34.49
70437;BME280;57877;39.750;-104.894;2023-01-28T06:16:00;82804.00;;;1.20;34.33
70437;BME280;57877;39.750;-104.894;2023-01-28T06:18:26;82804.19;;;1.14;34.58
70437;BME280;57877;39.750;-104.894;2023-01-28T06:20:52;82811.84;;;1.18;34.84
70437;BME280;57877;39.750;-104.894;2023-01-28T06:23:17;82811.19;;;1.42;34.12
70437;BME280;57877;39.750;-104.894;2023-01-28T06:25:43;82813.50;;;1.16;34.86
70437;BME280;57877;39.750;-104.894;2023-01-28T06:28:08;82818.29;;;1.23;35.23
70437;BME280;57877;39.750;-104.894;2023-01-28T06:30:33;82820.55;;;1.06;35.49
70437;BME280;57877;39.750;-104.894;2023-01-28T06:32:59;82824.35;;;0.94;35.62
70437;BME280;57877;39.750;-104.894;2023-01-28T06:35:25;82820.00;;;0.90;35.71
70437;BME280;57877;39.750;-104.894;2023-01-28T06:37:52;82813.72;;;0.49;35.27
70437;BME280;57877;39.750;-104.894;2023-01-28T06:40:17;82822.23;;;0.27;35.50
70437;BME280;57877;39.750;-104.894;2023-01-28T06:42:42;82814.90;;;0.34;35.46
70437;BME280;57877;39.750;-104.894;2023-01-28T06:45:08;82813.90;;;0.02;35.49
70437;BME280;57877;39.750;-104.894;2023-01-28T06:47:34;82815.34;;;0.29;35.14
70437;BME280;57877;39.750;-104.894;2023-01-28T06:50:00;82813.73;;;0.39;35.09
70437;BME280;57877;39.750;-104.894;2023-01-28T06:52:26;82811.14;;;0.23;34.80
70437;BME280;57877;39.750;-104.894;2023-01-28T06:54:52;82805.29;;;0.71;34.09
70437;BME280;57877;39.750;-104.894;2023-01-28T06:57:17;82806.18;;;0.14;34.31
70437;BME280;57877;39.750;-104.894;2023-01-28T06:59:43;82807.48;;;0.23;34.01
70437;BME280;57877;39.750;-104.894;2023-01-28T07:02:09;82798.84;;;0.30;33.68
70437;BME280;57877;39.750;-104.894;2023-01-28T07:04:33;82798.53;;;0.61;33.11
70437;BME280;57877;39.750;-104.894;2023-01-28T07:06:59;82803.31;;;0.17;34.71
70437;BME280;57877;39.750;-104.894;2023-01-28T07:09:25;82800.41;;;0.15;35.27
70437;BME280;57877;39.750;-104.894;2023-01-28T07:11:51;82795.91;;;0.39;34.42
70437;BME280;57877;39.750;-104.894;2023-01-28T07:14:17;82789.92;;;0.35;33.83
70437;BME280;57877;39.750;-104.894;2023-01-28T07:16:43;82787.38;;;-0.17;34.46
70437;BME280;57877;39.750;-104.894;2023-01-28T07:19:08;82784.37;;;0.08;34.21
70437;BME280;57877;39.750;-104.894;2023-01-28T07:21:33;82788.09;;;-0.17;33.59
70437;BME280;57877;39.750;-104.894;2023-01-28T07:23:59;82791.89;;;0.03;35.07
70437;BME280;57877;39.750;-104.894;2023-01-28T07:26:25;82792.82;;;-0.65;36.98
70437;BME280;57877;39.750;-104.894;2023-01-28T07:28:50;82790.25;;;-0.34;35.96
70437;BME280;57877;39.750;-104.894;2023-01-28T07:31:16;82791.30;;;-0.03;36.31
70437;BME280;57877;39.750;-104.894;2023-01-28T07:33:42;82792.51;;;-0.32;35.89
70437;BME280;57877;39.750;-104.894;2023-01-28T07:36:08;82794.52;;;-0.41;36.96
70437;BME280;57877;39.750;-104.894;2023-01-28T07:38:33;82789.28;;;-0.14;36.49
70437;BME280;57877;39.750;-104.894;2023-01-28T07:40:58;82781.57;;;-0.46;35.58
70437;BME280;57877;39.750;-104.894;2023-01-28T07:43:23;82781.97;;;-0.63;35.27
70437;BME280;57877;39.750;-104.894;2023-01-28T07:45:48;82783.27;;;-0.44;36.55
70437;BME280;57877;39.750;-104.894;2023-01-28T07:48:14;82784.14;;;-0.31;36.56
70437;BME280;57877;39.750;-104.894;2023-01-28T07:50:40;82776.03;;;-0.35;35.59
70437;BME280;57877;39.750;-104.894;2023-01-28T07:53:06;82779.27;;;-0.52;36.18
70437;BME280;57877;39.750;-104.894;2023-01-28T07:55:31;82783.47;;;-0.39;36.46
70437;BME280;57877;39.750;-104.894;2023-01-28T07:57:58;82784.32;;;-0.40;35.71
70437;BME280;57877;39.750;-104.894;2023-01-28T08:00:23;82786.80;;;-0.67;37.17
70437;BME280;57877;39.750;-104.894;2023-01-28T08:02:48;82785.74;;;-0.62;37.07
70437;BME280;57877;39.750;-104.894;2023-01-28T08:05:14;82784.62;;;-0.76;36.67
70437;BME280;57877;39.750;-104.894;2023-01-28T08:07:37;82788.17;;;-0.65;36.99
70437;BME280;57877;39.750;-104.894;2023-01-28T08:10:03;82788.64;;;-0.57;36.13
70437;BME280;57877;39.750;-104.894;2023-01-28T08:12:27;82788.79;;;-0.81;35.47
70437;BME280;57877;39.750;-104.894;2023-01-28T08:14:52;82795.98;;;-0.90;37.09
70437;BME280;57877;39.750;-104.894;2023-01-28T08:17:17;82798.18;;;-1.29;37.40
70437;BME280;57877;39.750;-104.894;2023-01-28T08:19:44;82800.82;;;-1.14;37.42
70437;BME280;57877;39.750;-104.894;2023-01-28T08:22:09;82802.20;;;-1.12;36.95
70437;BME280;57877;39.750;-104.894;2023-01-28T08:24:35;82803.37;;;-1.12;37.13
70437;BME280;57877;39.750;-104.894;2023-01-28T08:27:00;82803.46;;;-1.67;37.76
70437;BME280;57877;39.750;-104.894;2023-01-28T08:29:25;82806.42;;;-1.69;37.78
70437;BME280;57877;39.750;-104.894;2023-01-28T08:31:50;82805.80;;;-2.52;40.45
70437;BME280;57877;39.750;-104.894;2023-01-28T08:34:15;82805.95;;;-1.54;38.32
70437;BME280;57877;39.750;-104.894;2023-01-28T08:36:40;82808.57;;;-1.67;38.77
70437;BME280;57877;39.750;-104.894;2023-01-28T08:39:05;82808.00;;;-1.51;38.55
70437;BME280;57877;39.750;-104.894;2023-01-28T08:41:30;82807.03;;;-1.72;38.56
70437;BME280;57877;39.750;-104.894;2023-01-28T08:43:55;82806.21;;;-1.52;38.50
70437;BME280;57877;39.750;-104.894;2023-01-28T08:46:20;82810.78;;;-1.63;37.24
70437;BME280;57877;39.750;-104.894;2023-01-28T08:48:45;82811.37;;;-1.44;38.19
70437;BME280;57877;39.750;-104.894;2023-01-28T08:51:10;82816.73;;;-1.84;38.70
70437;BME280;57877;39.750;-104.894;2023-01-28T08:53:35;82818.58;;;-1.55;38.12
70437;BME280;57877;39.750;-104.894;2023-01-28T08:56:00;82829.21;;;-1.42;37.58
70437;BME280;57877;39.750;-104.894;2023-01-28T08:58:26;82831.01;;;-1.34;37.17
70437;BME280;57877;39.750;-104.894;2023-01-28T09:00:52;82827.62;;;-2.10;38.06
70437;BME280;57877;39.750;-104.894;2023-01-28T09:03:18;82830.08;;;-1.40;37.30
70437;BME280;57877;39.750;-104.894;2023-01-28T09:05:43;82842.56;;;-1.17;36.79
70437;BME280;57877;39.750;-104.894;2023-01-28T09:08:11;82843.96;;;-1.30;37.23
70437;BME280;57877;39.750;-104.894;2023-01-28T09:10:35;82840.04;;;-1.53;37.57
70437;BME280;57877;39.750;-104.894;2023-01-28T09:13:04;82840.85;;;-1.17;36.42
70437;BME280;57877;39.750;-104.894;2023-01-28T09:15:29;82845.94;;;-1.33;36.43
70437;BME280;57877;39.750;-104.894;2023-01-28T09:17:49;82848.71;;;-1.85;36.62
70437;BME280;57877;39.750;-104.894;2023-01-28T09:20:14;82847.66;;;-1.97;36.96
70437;BME280;57877;39.750;-104.894;2023-01-28T09:22:39;82851.63;;;-1.57;36.98
70437;BME280;57877;39.750;-104.894;2023-01-28T09:25:05;82857.39;;;-1.81;37.20
70437;BME280;57877;39.750;-104.894;2023-01-28T09:27:29;82856.62;;;-1.50;36.55
70437;BME280;57877;39.750;-104.894;2023-01-28T09:29:54;82855.73;;;-1.10;36.46
70437;BME280;57877;39.750;-104.894;2023-01-28T09:32:19;82858.44;;;-1.17;35.96
70437;BME280;57877;39.750;-104.894;2023-01-28T09:34:44;82861.24;;;-1.72;36.52
70437;BME280;57877;39.750;-104.894;2023-01-28T09:37:09;82858.02;;;-1.43;36.31
70437;BME280;57877;39.750;-104.894;2023-01-28T09:39:34;82854.45;;;-1.31;35.77
70437;BME280;57877;39.750;-104.894;2023-01-28T09:42:12;82853.29;;;-1.52;35.39
70437;BME280;57877;39.750;-104.894;2023-01-28T09:44:36;82858.51;;;-1.05;34.96
70437;BME280;57877;39.750;-104.894;2023-01-28T09:46:50;82858.49;;;-1.21;35.17
70437;BME280;57877;39.750;-104.894;2023-01-28T09:49:20;82854.33;;;-1.62;36.00
70437;BME280;57877;39.750;-104.894;2023-01-28T09:51:42;82856.44;;;-1.57;36.01
70437;BME280;57877;39.750;-104.894;2023-01-28T09:54:10;82860.88;;;-1.23;35.77
70437;BME280;57877;39.750;-104.894;2023-01-28T09:56:33;82864.12;;;-1.43;36.53
70437;BME280;57877;39.750;-104.894;2023-01-28T09:58:56;82856.24;;;-1.45;36.66
70437;BME280;57877;39.750;-104.894;2023-01-28T10:01:34;82856.60;;;-2.02;36.75
70437;BME280;57877;39.750;-104.894;2023-01-28T10:03:53;82863.44;;;-1.73;36.87
70437;BME280;57877;39.750;-104.894;2023-01-28T10:06:19;82870.28;;;-1.95;37.79
70437;BME280;57877;39.750;-104.894;2023-01-28T10:08:48;82869.07;;;-2.08;37.84
70437;BME280;57877;39.750;-104.894;2023-01-28T10:11:06;82863.02;;;-2.12;37.53
70437;BME280;57877;39.750;-104.894;2023-01-28T10:13:31;82857.74;;;-2.18;37.63
70437;BME280;57877;39.750;-104.894;2023-01-28T10:15:58;82861.27;;;-2.22;37.71
70437;BME280;57877;39.750;-104.894;2023-01-28T10:18:25;82856.71;;;-1.98;37.78
70437;BME280;57877;39.750;-104.894;2023-01-28T10:20:46;82847.09;;;-2.73;39.42
70437;BME280;57877;39.750;-104.894;2023-01-28T10:23:13;82844.66;;;-2.67;38.95
70437;BME280;57877;39.750;-104.894;2023-01-28T10:25:32;82838.55;;;-2.58;38.77
70437;BME280;57877;39.750;-104.894;2023-01-28T10:27:57;82838.22;;;-2.32;38.72
70437;BME280;57877;39.750;-104.894;2023-01-28T10:30:24;82832.85;;;-2.81;39.27
70437;BME280;57877;39.750;-104.894;2023-01-28T10:32:52;82832.88;;;-2.11;38.95
70437;BME280;57877;39.750;-104.894;2023-01-28T10:35:13;82855.87;;;-2.22;38.79
70437;BME280;57877;39.750;-104.894;2023-01-28T10:37:39;82851.58;;;-2.63;39.26
70437;BME280;57877;39.750;-104.894;2023-01-28T10:40:11;82845.62;;;-2.64;39.11
70437;BME280;57877;39.750;-104.894;2023-01-28T10:42:31;82840.92;;;-3.17;38.91
70437;BME280;57877;39.750;-104.894;2023-01-28T10:44:58;82850.87;;;-2.50;39.00
70437;BME280;57877;39.750;-104.894;2023-01-28T10:47:28;82856.44;;;-2.59;38.98
70437;BME280;57877;39.750;-104.894;2023-01-28T10:49:48;82862.75;;;-3.12;39.54
70437;BME280;57877;39.750;-104.894;2023-01-28T10:52:12;82864.28;;;-3.77;40.61
70437;BME280;57877;39.750;-104.894;2023-01-28T10:54:35;82859.15;;;-3.30;40.17
70437;BME280;57877;39.750;-104.894;2023-01-28T10:57:02;82868.39;;;-2.93;39.24
70437;BME280;57877;39.750;-104.894;2023-01-28T10:59:27;82869.00;;;-2.86;39.18
70437;BME280;57877;39.750;-104.894;2023-01-28T11:01:52;82862.54;;;-3.05;39.61
70437;BME280;57877;39.750;-104.894;2023-01-28T11:04:19;82862.41;;;-3.56;40.30
70437;BME280;57877;39.750;-104.894;2023-01-28T11:06:40;82860.25;;;-3.47;40.41
70437;BME280;57877;39.750;-104.894;2023-01-28T11:11:30;82854.76;;;-3.49;39.93
70437;BME280;57877;39.750;-104.894;2023-01-28T11:13:56;82859.17;;;-3.30;39.23
70437;BME280;57877;39.750;-104.894;2023-01-28T11:16:21;82864.96;;;-3.17;38.29
70437;BME280;57877;39.750;-104.894;2023-01-28T11:18:50;82866.97;;;-3.14;38.00
70437;BME280;57877;39.750;-104.894;2023-01-28T11:21:16;82871.31;;;-3.02;38.00
70437;BME280;57877;39.750;-104.894;2023-01-28T11:23:49;82874.22;;;-3.57;38.28
70437;BME280;57877;39.750;-104.894;2023-01-28T11:26:05;82882.07;;;-4.17;38.83
70437;BME280;57877;39.750;-104.894;2023-01-28T11:28:26;82884.78;;;-3.76;37.93
70437;BME280;57877;39.750;-104.894;2023-01-28T11:30:53;82888.68;;;-4.13;38.73
70437;BME280;57877;39.750;-104.894;2023-01-28T11:33:18;82885.74;;;-3.73;37.82
70437;BME280;57877;39.750;-104.894;2023-01-28T11:38:16;82884.84;;;-3.00;36.88
70437;BME280;57877;39.750;-104.894;2023-01-28T11:40:33;82881.38;;;-3.13;36.64
70437;BME280;57877;39.750;-104.894;2023-01-28T11:42:58;82883.35;;;-3.39;37.29
70437;BME280;57877;39.750;-104.894;2023-01-28T11:45:34;82883.69;;;-3.51;37.40
70437;BME280;57877;39.750;-104.894;2023-01-28T11:47:57;82880.52;;;-4.21;38.07
70437;BME280;57877;39.750;-104.894;2023-01-28T11:50:23;82883.83;;;-3.72;37.54
70437;BME280;57877;39.750;-104.894;2023-01-28T11:52:48;82893.32;;;-4.17;38.70
70437;BME280;57877;39.750;-104.894;2023-01-28T11:55:16;82891.35;;;-3.75;38.22
70437;BME280;57877;39.750;-104.894;2023-01-28T11:57:32;82892.90;;;-3.14;36.95
70437;BME280;57877;39.750;-104.894;2023-01-28T12:02:35;82899.46;;;-2.58;35.28
70437;BME280;57877;39.750;-104.894;2023-01-28T12:04:54;82899.02;;;-2.26;35.45
70437;BME280;57877;39.750;-104.894;2023-01-28T12:07:20;82905.54;;;-2.55;34.94
70437;BME280;57877;39.750;-104.894;2023-01-28T12:09:42;82908.73;;;-2.31;34.87
70437;BME280;57877;39.750;-104.894;2023-01-28T12:12:08;82906.66;;;-2.11;34.69
70437;BME280;57877;39.750;-104.894;2023-01-28T12:14:32;82909.70;;;-2.68;35.52
70437;BME280;57877;39.750;-104.894;2023-01-28T12:16:56;82911.88;;;-3.12;35.82
70437;BME280;57877;39.750;-104.894;2023-01-28T12:21:51;82909.89;;;-2.30;34.65
70437;BME280;57877;39.750;-104.894;2023-01-28T12:24:15;82906.77;;;-2.90;35.44
70437;BME280;57877;39.750;-104.894;2023-01-28T12:26:35;82908.39;;;-2.65;34.96
70437;BME280;57877;39.750;-104.894;2023-01-28T12:29:04;82911.18;;;-2.82;34.84
70437;BME280;57877;39.750;-104.894;2023-01-28T12:31:29;82907.70;;;-2.57;34.82
70437;BME280;57877;39.750;-104.894;2023-01-28T12:33:58;82908.72;;;-2.40;34.68
70437;BME280;57877;39.750;-104.894;2023-01-28T12:36:22;82908.41;;;-2.35;34.59
70437;BME280;57877;39.750;-104.894;2023-01-28T12:38:45;82909.98;;;-2.47;34.89
70437;BME280;57877;39.750;-104.894;2023-01-28T12:41:03;82908.40;;;-2.28;34.53